Time Latitude Longitude Accuracy (66% radius in meters) Altitude (meters) Speed (km/hour) Bearing (degrees) Battery (%) GPS flag
07:18:43 57.203295 60.119457 0 0 0 0 1 delete
07:18:42 57.203272 60.119457 0 0 0 0 1 delete
07:18:41 57.203238 60.119459 0 0 0 0 1 delete
07:18:40 57.203198 60.119459 0 0 0 0 1 delete
07:18:39 57.203153 60.119460 0 0 0 0 1 delete
07:18:38 57.203103 60.119461 0 0 0 0 1 delete
07:18:37 57.203048 60.119460 0 0 0 0 1 delete
07:18:36 57.202988 60.119455 0 0 0 0 1 delete
07:18:35 57.202922 60.119448 0 0 0 0 1 delete
07:18:34 57.202852 60.119435 0 0 0 0 1 delete
07:18:33 57.202779 60.119411 0 0 0 0 1 delete
07:18:32 57.202711 60.119375 0 0 0 0 1 delete
07:18:31 57.202655 60.119337 0 0 0 0 1 delete
07:18:30 57.202609 60.119296 0 0 0 0 1 delete
07:18:29 57.202565 60.119254 0 0 0 0 1 delete
07:18:28 57.202523 60.119201 0 0 0 0 1 delete
07:18:27 57.202482 60.119138 0 0 0 0 1 delete
07:18:26 57.202445 60.119060 0 0 0 0 1 delete
07:18:25 57.202407 60.118974 0 0 0 0 1 delete
07:18:24 57.202368 60.118885 0 0 0 0 1 delete
07:18:23 57.202326 60.118795 0 0 0 0 1 delete
07:18:22 57.202288 60.118713 0 0 0 0 1 delete
07:18:21 57.202253 60.118631 0 0 0 0 1 delete
07:18:20 57.202224 60.118550 0 0 0 0 1 delete
07:18:19 57.202197 60.118465 0 0 0 0 1 delete
07:18:18 57.202177 60.118385 0 0 0 0 1 delete
07:18:17 57.202164 60.118311 0 0 0 0 1 delete
07:18:16 57.202157 60.118243 0 0 0 0 1 delete
07:18:15 57.202157 60.118178 0 0 0 0 1 delete
07:18:14 57.202161 60.118124 0 0 0 0 1 delete
07:18:13 57.202167 60.118081 0 0 0 0 1 delete
07:18:12 57.202174 60.118045 0 0 0 0 1 delete
07:18:11 57.202181 60.118007 0 0 0 0 1 delete
07:18:10 57.202188 60.117967 0 0 0 0 1 delete
07:18:09 57.202194 60.117927 0 0 0 0 1 delete
07:18:08 57.202198 60.117883 0 0 0 0 1 delete
07:18:07 57.202205 60.117830 0 0 0 0 1 delete
07:18:06 57.202207 60.117771 0 0 0 0 1 delete
07:18:05 57.202202 60.117705 0 0 0 0 1 delete
07:18:04 57.202183 60.117650 0 0 0 0 1 delete
07:18:03 57.202160 60.117600 0 0 0 0 1 delete
07:18:02 57.202142 60.117557 0 0 0 0 1 delete
07:18:01 57.202127 60.117508 0 0 0 0 1 delete
07:18:00 57.202106 60.117452 0 0 0 0 1 delete
07:17:59 57.202077 60.117389 0 0 0 0 1 delete
07:17:58 57.202041 60.117330 0 0 0 0 1 delete
07:17:57 57.202001 60.117281 0 0 0 0 1 delete
07:17:56 57.201957 60.117251 0 0 0 0 1 delete
07:17:55 57.201911 60.117229 0 0 0 0 1 delete
07:17:54 57.201868 60.117206 0 0 0 0 1 delete